Time;durP1;ratioP1;P1;durP2;ratioP2;P2;SDS_P1;SDS_P2;PMS_P1;PMS_P2;Temp;Humidity;BMP_temperature;BMP_pressure;BME280_temperature;BME280_humidity;BME280_pressure;Samples;Min_cycle;Max_cycle;Signal;HPM_P1;HPM_P2
2023/10/12 00:01:39;;;;;;;13.00;4.07;;;14.20;60.10;;;;;;5082682;28;20037;-61
2023/10/12 00:04:11;;;;;;;10.55;4.28;;;14.20;60.10;;;;;;5091333;28;20077;-61
2023/10/12 00:06:38;;;;;;;10.63;4.32;;;14.20;60.10;;;;;;5091287;28;20116;-61
2023/10/12 00:09:17;;;;;;;9.40;3.85;;;14.20;60.20;;;;;;5087803;28;20027;-61
2023/10/12 00:11:54;;;;;;;10.38;4.00;;;14.10;60.20;;;;;;5086896;28;20121;-61
2023/10/12 00:14:22;;;;;;;8.65;4.28;;;14.20;60.40;;;;;;5093283;28;20059;-61
2023/10/12 00:16:51;;;;;;;8.68;3.85;;;14.10;60.40;;;;;;5073407;28;20065;-61
2023/10/12 00:19:16;;;;;;;10.55;4.60;;;14.10;60.50;;;;;;5090902;28;20063;-61
2023/10/12 00:21:43;;;;;;;8.63;3.90;;;14.10;60.60;;;;;;5073591;28;20116;-62
2023/10/12 00:24:18;;;;;;;7.82;4.18;;;14.10;60.70;;;;;;5089115;28;20146;-60
2023/10/12 00:26:44;;;;;;;12.23;4.55;;;14.00;60.80;;;;;;5084932;28;20044;-62
2023/10/12 00:29:10;;;;;;;12.40;4.38;;;14.10;60.80;;;;;;5087102;28;20028;-61
2023/10/12 00:31:38;;;;;;;9.00;4.07;;;14.00;60.90;;;;;;5085123;28;20024;-60
2023/10/12 00:34:05;;;;;;;6.65;3.70;;;14.00;60.80;;;;;;5088535;28;20020;-60
2023/10/12 00:36:36;;;;;;;11.60;4.35;;;14.00;60.80;;;;;;5093117;28;20043;-61
2023/10/12 00:39:09;;;;;;;9.18;4.35;;;14.00;60.80;;;;;;5086961;28;20047;-60
2023/10/12 00:41:37;;;;;;;9.00;3.72;;;14.00;60.80;;;;;;5091277;28;20478;-61
2023/10/12 00:49:48;;;;;;;10.80;3.95;;;14.00;61.30;;;;;;5091822;28;20032;-61
2023/10/12 00:51:51;;;;;;;7.10;4.05;;;13.90;61.30;;;;;;5076130;28;20044;-61
2023/10/12 00:54:25;;;;;;;9.27;4.27;;;13.90;61.30;;;;;;5089039;28;20204;-61
2023/10/12 00:56:55;;;;;;;18.15;4.13;;;14.00;61.20;;;;;;5086656;28;20031;-60
2023/10/12 00:59:22;;;;;;;9.45;4.38;;;13.90;61.40;;;;;;5088150;28;20040;-62
2023/10/12 01:01:49;;;;;;;12.68;4.05;;;13.90;61.20;;;;;;5087908;28;20019;-61
2023/10/12 01:04:16;;;;;;;12.07;4.25;;;13.90;61.30;;;;;;5082779;28;20039;-59
2023/10/12 01:06:44;;;;;;;9.05;4.22;;;13.90;61.40;;;;;;5092003;28;20032;-61
2023/10/12 01:09:20;;;;;;;10.75;4.32;;;13.90;61.50;;;;;;5081995;28;20039;-61
2023/10/12 01:12:00;;;;;;;6.95;3.55;;;13.90;61.50;;;;;;5084175;28;20020;-63
2023/10/12 01:14:27;;;;;;;11.52;3.85;;;13.80;61.70;;;;;;5093058;28;20114;-62
2023/10/12 01:16:58;;;;;;;13.38;3.72;;;13.80;61.40;;;;;;5095965;28;20041;-61
2023/10/12 01:19:31;;;;;;;8.65;4.28;;;13.80;61.70;;;;;;5085814;28;20035;-61
2023/10/12 01:22:13;;;;;;;14.35;4.18;;;13.80;61.70;;;;;;5087398;28;20028;-62
2023/10/12 01:27:23;;;;;;;8.35;4.00;;;13.70;61.70;;;;;;5084322;28;20101;-60
2023/10/12 01:29:50;;;;;;;7.82;3.92;;;13.70;61.40;;;;;;5089974;28;20446;-61
2023/10/12 01:34:51;;;;;;;12.45;4.05;;;13.60;61.60;;;;;;5091490;28;20059;-61
2023/10/12 01:45:16;;;;;;;10.48;4.38;;;13.50;61.70;;;;;;5078719;28;20036;-61
2023/10/12 01:47:44;;;;;;;10.90;4.25;;;13.50;61.70;;;;;;4977335;28;20051;-61
2023/10/12 01:50:10;;;;;;;8.80;3.88;;;13.50;61.70;;;;;;5080156;28;20020;-62
2023/10/12 01:52:35;;;;;;;11.13;3.50;;;13.40;61.80;;;;;;5082931;28;20406;-62
2023/10/12 01:55:15;;;;;;;8.93;3.72;;;13.40;61.70;;;;;;5086350;28;20447;-61
2023/10/12 01:57:47;;;;;;;12.48;3.40;;;13.40;61.80;;;;;;5081560;28;20055;-61
2023/10/12 02:00:15;;;;;;;11.73;4.50;;;13.30;61.70;;;;;;5083263;28;20031;-61
2023/10/12 02:02:50;;;;;;;10.50;4.35;;;13.30;61.90;;;;;;5070152;28;20032;-60
2023/10/12 02:05:26;;;;;;;8.82;4.00;;;13.30;62.00;;;;;;5086999;28;20043;-61
2023/10/12 02:07:53;;;;;;;8.73;4.00;;;13.20;62.00;;;;;;5089719;28;20047;-62
2023/10/12 02:10:18;;;;;;;10.77;4.20;;;13.20;62.10;;;;;;5088116;28;20050;-62
2023/10/12 02:12:46;;;;;;;8.07;3.55;;;13.20;62.10;;;;;;5088104;28;20059;-62
2023/10/12 02:15:15;;;;;;;6.90;3.70;;;13.10;62.10;;;;;;5097692;28;20119;-62
2023/10/12 02:17:49;;;;;;;11.30;3.40;;;13.10;62.10;;;;;;5094569;28;20107;-61
2023/10/12 02:20:15;;;;;;;10.05;4.10;;;13.10;62.50;;;;;;5087830;28;20603;-62
2023/10/12 02:22:41;;;;;;;10.25;4.13;;;13.00;62.60;;;;;;5093024;28;20043;-61
2023/10/12 02:25:26;;;;;;;9.48;4.32;;;13.00;62.80;;;;;;5091891;28;20044;-62
2023/10/12 02:27:56;;;;;;;11.02;3.80;;;13.10;62.90;;;;;;5089897;28;20440;-61
2023/10/12 02:30:28;;;;;;;8.00;3.60;;;13.00;62.70;;;;;;5092101;28;20024;-62
2023/10/12 02:33:00;;;;;;;13.27;3.85;;;13.00;62.80;;;;;;5089905;28;20043;-62
2023/10/12 02:35:36;;;;;;;9.40;3.63;;;13.00;62.90;;;;;;5087281;28;20061;-62
2023/10/12 02:38:09;;;;;;;10.10;4.03;;;12.90;63.00;;;;;;5109401;27;20641;-62
2023/10/12 02:40:35;;;;;;;11.63;3.83;;;12.90;63.30;;;;;;5088505;28;20032;-62
2023/10/12 02:43:06;;;;;;;12.07;4.32;;;12.90;63.60;;;;;;5094047;28;20030;-62
2023/10/12 02:45:33;;;;;;;9.50;4.00;;;12.90;63.80;;;;;;5093780;28;20028;-61
2023/10/12 02:48:05;;;;;;;9.80;4.63;;;12.90;63.90;;;;;;5027617;28;20472;-61
2023/10/12 02:50:38;;;;;;;10.57;3.67;;;12.90;63.90;;;;;;5087223;28;20074;-62
2023/10/12 02:53:09;;;;;;;8.15;3.50;;;12.90;63.90;;;;;;5096402;28;20086;-62
2023/10/12 02:55:40;;;;;;;15.07;4.13;;;12.90;63.70;;;;;;5083547;28;20058;-62
2023/10/12 03:00:45;;;;;;;7.65;3.63;;;12.90;63.60;;;;;;5091053;28;21177;-61
2023/10/12 03:03:31;;;;;;;9.05;3.67;;;12.80;63.50;;;;;;5089641;28;20020;-61
2023/10/12 03:06:07;;;;;;;10.13;3.60;;;12.80;63.50;;;;;;5086412;28;20024;-61
2023/10/12 03:08:34;;;;;;;6.20;3.70;;;12.80;63.40;;;;;;5089481;28;20096;-61
2023/10/12 03:13:36;;;;;;;9.35;3.30;;;12.80;63.50;;;;;;5096781;28;20034;-62
2023/10/12 03:16:11;;;;;;;8.40;3.83;;;12.70;64.10;;;;;;5087123;28;20107;-62
2023/10/12 03:18:37;;;;;;;9.60;3.78;;;12.70;63.60;;;;;;5086552;28;20039;-62
2023/10/12 03:21:11;;;;;;;10.50;3.50;;;12.70;63.50;;;;;;5092438;28;20028;-61
2023/10/12 03:23:38;;;;;;;14.00;4.00;;;12.70;63.50;;;;;;5075103;28;20027;-61
2023/10/12 03:26:16;;;;;;;8.70;4.13;;;12.70;63.40;;;;;;5075818;28;20035;-62
2023/10/12 03:28:46;;;;;;;9.05;4.15;;;12.70;63.50;;;;;;5086898;28;20043;-62
2023/10/12 03:31:21;;;;;;;8.88;3.97;;;12.70;63.40;;;;;;5091359;28;20500;-61
2023/10/12 03:33:53;;;;;;;8.13;4.05;;;12.70;63.40;;;;;;5090271;28;20032;-61
2023/10/12 03:36:25;;;;;;;7.05;3.70;;;12.60;63.20;;;;;;5088967;28;20027;-61
2023/10/12 03:44:36;;;;;;;11.73;4.80;;;12.60;63.60;;;;;;5089490;28;20027;-61
2023/10/12 03:52:27;;;;;;;9.18;4.20;;;12.60;64.00;;;;;;5089517;28;20054;-61
2023/10/12 03:57:32;;;;;;;8.27;4.20;;;12.60;64.00;;;;;;5089835;28;20041;-61
2023/10/12 04:03:14;;;;;;;18.05;5.07;;;12.60;64.10;;;;;;5084580;28;20469;-61
2023/10/12 04:18:42;;;;;;;12.50;4.93;;;12.70;64.80;;;;;;5091098;28;20089;-62
2023/10/12 04:21:10;;;;;;;9.50;5.05;;;12.70;65.10;;;;;;5089020;28;20139;-62
2023/10/12 04:24:27;;;;;;;15.70;5.88;;;12.70;64.80;;;;;;5089293;28;20451;-60
2023/10/12 04:28:58;;;;;;;14.88;6.03;;;12.80;64.80;;;;;;5093483;28;20142;-62
2023/10/12 04:34:06;;;;;;;12.35;4.97;;;12.80;64.90;;;;;;5086165;28;20084;-61
2023/10/12 04:46:59;;;;;;;12.27;5.03;;;12.80;64.90;;;;;;5090693;28;20044;-61
2023/10/12 04:49:53;;;;;;;9.52;4.78;;;12.80;66.10;;;;;;5085644;28;20694;-61
2023/10/12 04:52:24;;;;;;;9.02;4.90;;;12.80;65.20;;;;;;5085299;28;20043;-63
2023/10/12 04:57:31;;;;;;;8.52;4.47;;;12.80;64.90;;;;;;5086929;28;20057;-62
2023/10/12 05:02:59;;;;;;;;;;;12.80;64.80;;;;;;5085406;28;20093;-61
2023/10/12 05:07:55;;;;;;;15.15;4.47;;;12.80;64.20;;;;;;5088824;28;20083;-62
2023/10/12 05:10:27;;;;;;;16.20;4.78;;;12.70;64.60;;;;;;5088251;28;20028;-61
2023/10/12 05:12:57;;;;;;;15.20;5.20;;;12.70;64.90;;;;;;5074143;28;20435;-61
2023/10/12 05:15:27;;;;;;;11.90;5.22;;;12.70;65.30;;;;;;5092056;28;20392;-63
2023/10/12 05:17:53;;;;;;;12.32;5.57;;;12.60;65.00;;;;;;5084269;28;20089;-62
2023/10/12 05:20:23;;;;;;;16.50;5.82;;;12.60;65.20;;;;;;5088344;28;20015;-63
2023/10/12 05:22:48;;;;;;;17.27;5.45;;;12.60;65.30;;;;;;5089986;28;20537;-61
2023/10/12 05:25:14;;;;;;;12.57;5.35;;;12.60;65.40;;;;;;5093574;28;20127;-62
2023/10/12 05:27:55;;;;;;;13.20;5.63;;;12.60;65.40;;;;;;5089999;28;20038;-61
2023/10/12 05:30:26;;;;;;;11.57;4.55;;;12.60;65.50;;;;;;5088933;28;20059;-61
2023/10/12 05:32:56;;;;;;;9.73;4.82;;;12.60;65.40;;;;;;5088599;28;20024;-61
2023/10/12 05:35:46;;;;;;;7.65;4.43;;;12.50;65.30;;;;;;5089682;28;20127;-62
2023/10/12 05:38:07;;;;;;;10.73;4.47;;;12.50;65.30;;;;;;5079954;28;20024;-61
2023/10/12 05:40:35;;;;;;;8.82;4.70;;;12.50;65.30;;;;;;5087684;28;20024;-61
2023/10/12 05:43:14;;;;;;;13.40;4.60;;;12.50;65.30;;;;;;5085368;28;20035;-61
2023/10/12 05:45:44;;;;;;;11.75;4.78;;;12.50;65.40;;;;;;5091482;28;20063;-61
2023/10/12 05:48:10;;;;;;;9.10;4.68;;;12.50;65.30;;;;;;5071179;28;20036;-62
2023/10/12 05:50:36;;;;;;;12.55;4.55;;;12.50;65.60;;;;;;5082966;28;20020;-62
2023/10/12 05:53:03;;;;;;;10.38;4.50;;;12.40;65.70;;;;;;5086191;28;20182;-62
2023/10/12 05:55:29;;;;;;;14.88;4.53;;;12.40;65.80;;;;;;5092445;28;20035;-61
2023/10/12 05:58:06;;;;;;;12.27;4.85;;;12.40;65.90;;;;;;5098681;28;20031;-62
2023/10/12 06:00:41;;;;;;;20.75;4.93;;;12.40;66.10;;;;;;5085714;28;20028;-61
2023/10/12 06:03:10;;;;;;;10.88;5.38;;;12.40;66.30;;;;;;5097648;28;20601;-60
2023/10/12 06:05:36;;;;;;;16.80;5.72;;;12.40;66.30;;;;;;5086794;28;20042;-61
2023/10/12 06:08:05;;;;;;;17.42;5.60;;;12.40;66.40;;;;;;5092744;28;20036;-61
2023/10/12 06:10:33;;;;;;;20.45;5.70;;;12.40;66.40;;;;;;5089301;28;20020;-62
2023/10/12 06:12:59;;;;;;;19.45;5.82;;;12.50;66.40;;;;;;5088369;28;20028;-62
2023/10/12 06:15:25;;;;;;;20.30;6.30;;;12.50;66.50;;;;;;5085617;28;20065;-61
2023/10/12 06:17:55;;;;;;;22.42;5.70;;;12.50;66.70;;;;;;5089229;28;20076;-61
2023/10/12 06:20:31;;;;;;;18.60;5.78;;;12.50;66.70;;;;;;5067106;28;20036;-61
2023/10/12 06:22:57;;;;;;;23.95;6.18;;;12.50;66.70;;;;;;5085296;28;20070;-61
2023/10/12 06:25:23;;;;;;;24.27;5.82;;;12.50;66.60;;;;;;5089340;28;20509;-61
2023/10/12 06:27:49;;;;;;;21.85;6.53;;;12.60;66.60;;;;;;5085596;28;20493;-62
2023/10/12 06:30:18;;;;;;;35.50;7.13;;;12.60;66.80;;;;;;5085833;28;20024;-63
2023/10/12 06:32:47;;;;;;;31.95;7.68;;;12.60;67.00;;;;;;5086796;28;20127;-62
2023/10/12 06:35:23;;;;;;;30.50;7.03;;;12.70;67.00;;;;;;5083303;28;20039;-62
2023/10/12 06:51:02;;;;;;;31.45;8.30;;;13.00;67.10;;;;;;5083583;28;20106;-63
2023/10/12 06:53:36;;;;;;;35.08;7.97;;;13.00;67.50;;;;;;5088192;28;20113;-62
2023/10/12 06:59:07;;;;;;;37.50;8.60;;;13.20;68.10;;;;;;5082100;28;20030;-62
2023/10/12 07:01:38;;;;;;;41.30;9.02;;;13.30;68.20;;;;;;5089783;28;20039;-63
2023/10/12 07:04:12;;;;;;;110.43;15.70;;;13.40;68.00;;;;;;5083858;28;20108;-63
2023/10/12 07:06:39;;;;;;;;;;;13.60;68.10;;;;;;5090776;28;20071;-62
2023/10/12 07:09:06;;;;;;;158.25;18.70;;;13.70;68.50;;;;;;5092059;28;19943;-62
2023/10/12 07:11:32;;;;;;;170.23;21.80;;;13.90;67.40;;;;;;5074886;28;20036;-62
2023/10/12 07:14:04;;;;;;;131.75;21.48;;;14.00;67.60;;;;;;5090715;28;20061;-61
2023/10/12 07:16:32;;;;;;;126.97;18.90;;;14.10;67.50;;;;;;5090284;28;20028;-63
2023/10/12 07:18:58;;;;;;;100.35;17.48;;;14.20;67.40;;;;;;5090111;28;20134;-61
2023/10/12 07:21:24;;;;;;;111.63;17.95;;;14.30;67.40;;;;;;5088980;28;20016;-62
2023/10/12 07:23:53;;;;;;;95.53;15.55;;;14.40;67.40;;;;;;5069611;28;20042;-62
2023/10/12 07:26:19;;;;;;;102.68;15.85;;;14.50;67.40;;;;;;5087183;28;20020;-62
2023/10/12 07:28:49;;;;;;;68.70;13.10;;;14.60;67.30;;;;;;5087308;28;20084;-62
2023/10/12 07:39:20;;;;;;;;;;;14.80;66.90;;;;;;5087774;28;20113;-63
2023/10/12 07:41:54;;;;;;;73.60;11.55;;;14.90;67.10;;;;;;5091384;28;19908;-61
2023/10/12 07:44:27;;;;;;;67.97;11.63;;;15.00;66.50;;;;;;5088108;28;20101;-62
2023/10/12 07:46:56;;;;;;;43.83;11.02;;;15.10;67.40;;;;;;5087697;28;20453;-63
2023/10/12 07:52:09;;;;;;;19.25;6.80;;;15.40;67.40;;;;;;5083611;28;20753;-61
2023/10/12 07:57:22;;;;;;;30.40;7.57;;;15.80;67.20;;;;;;5088446;28;20024;-63
2023/10/12 08:23:57;;;;;;;12.77;5.38;;;18.00;64.90;;;;;;5088795;28;20028;-63
2023/10/12 08:26:35;;;;;;;10.07;4.95;;;18.10;63.80;;;;;;5089731;28;20032;-63
2023/10/12 08:37:26;;;;;;;16.65;5.97;;;18.60;62.90;;;;;;5088586;28;20031;-64
2023/10/12 08:44:54;;;;;;;10.95;5.05;;;19.00;62.90;;;;;;5083290;28;20052;-63
2023/10/12 08:52:29;;;;;;;12.50;4.57;;;19.50;62.30;;;;;;5092305;28;20409;-63
2023/10/12 08:54:58;;;;;;;11.40;4.30;;;19.60;61.80;;;;;;5087064;28;20361;-63
2023/10/12 08:57:37;;;;;;;10.38;4.10;;;19.80;61.30;;;;;;5086399;28;20074;-63
2023/10/12 09:00:39;;;;;;;8.52;4.00;;;20.10;60.70;;;;;;5087520;28;20040;-63
2023/10/12 09:03:14;;;;;;;13.10;3.92;;;20.20;60.70;;;;;;5089235;28;20023;-63
2023/10/12 09:05:40;;;;;;;10.82;4.07;;;20.60;60.30;;;;;;5082969;28;20059;-62
2023/10/12 09:13:34;;;;;;;10.27;4.07;;;21.50;58.50;;;;;;5088134;28;20061;-62
2023/10/12 09:16:06;;;;;;;9.50;4.03;;;21.70;57.50;;;;;;5086298;28;20043;-62
2023/10/12 09:18:43;;;;;;;12.60;3.97;;;22.00;56.70;;;;;;5086602;28;20019;-64
2023/10/12 09:23:52;;;;;;;10.55;3.90;;;22.40;56.00;;;;;;5074543;28;20052;-64
2023/10/12 09:26:30;;;;;;;12.60;4.00;;;22.60;55.50;;;;;;5081612;28;20032;-64
2023/10/12 09:36:53;;;;;;;7.13;3.22;;;23.20;53.80;;;;;;5084322;28;20504;-63
2023/10/12 09:39:24;;;;;;;10.00;3.78;;;23.40;52.80;;;;;;5081019;28;20034;-63
2023/10/12 09:41:59;;;;;;;19.02;4.00;;;23.40;53.00;;;;;;5076419;28;20633;-63
2023/10/12 09:44:27;;;;;;;8.50;3.78;;;23.50;52.70;;;;;;5088009;28;20030;-62
2023/10/12 09:46:56;;;;;;;12.82;4.07;;;23.60;52.30;;;;;;5086458;28;20062;-63
2023/10/12 09:49:27;;;;;;;8.52;3.83;;;23.60;52.00;;;;;;5089020;28;20391;-64
2023/10/12 09:52:07;;;;;;;10.43;3.67;;;23.60;52.10;;;;;;5083936;28;20125;-62
2023/10/12 09:54:56;;;;;;;10.65;3.72;;;23.60;51.60;;;;;;5083587;28;20093;-63
2023/10/12 09:57:27;;;;;;;7.93;3.42;;;23.70;51.60;;;;;;5085344;28;20026;-63
2023/10/12 09:59:59;;;;;;;17.65;5.15;;;23.70;51.80;;;;;;5089207;28;20118;-63
2023/10/12 10:02:28;;;;;;;9.35;4.03;;;23.70;51.70;;;;;;5085415;28;20030;-63
2023/10/12 10:05:27;;;;;;;6.93;3.53;;;23.70;51.50;;;;;;5089122;28;20043;-63
2023/10/12 10:08:06;;;;;;;16.17;4.22;;;23.80;51.70;;;;;;5089886;28;20471;-63
2023/10/12 10:10:36;;;;;;;14.02;4.25;;;23.80;51.30;;;;;;5088137;28;20024;-62
2023/10/12 10:13:12;;;;;;;9.40;3.92;;;23.80;51.60;;;;;;5091082;28;20462;-63
2023/10/12 10:15:56;;;;;;;8.95;3.58;;;23.80;51.20;;;;;;5085666;28;20118;-63
2023/10/12 10:18:28;;;;;;;11.52;4.00;;;23.90;51.10;;;;;;5084684;28;20115;-62
2023/10/12 10:21:01;;;;;;;7.75;3.85;;;24.00;51.70;;;;;;5081772;28;20036;-63
2023/10/12 10:23:36;;;;;;;17.88;5.05;;;24.00;51.40;;;;;;5084722;28;20063;-63
2023/10/12 10:26:38;;;;;;;7.18;3.78;;;24.10;51.00;;;;;;5085962;28;20039;-64
2023/10/12 10:29:06;;;;;;;15.00;3.63;;;24.20;50.30;;;;;;5086525;28;20093;-63
2023/10/12 10:31:40;;;;;;;10.65;3.50;;;24.30;51.00;;;;;;5088095;28;20024;-63
2023/10/12 10:34:09;;;;;;;11.77;3.72;;;24.40;50.40;;;;;;5083894;28;20059;-63
2023/10/12 10:36:35;;;;;;;11.57;3.95;;;24.50;50.20;;;;;;5083762;28;20016;-63
2023/10/12 10:39:29;;;;;;;7.03;3.10;;;24.50;50.00;;;;;;5090235;28;20047;-63
2023/10/12 10:42:07;;;;;;;11.13;3.70;;;24.60;49.40;;;;;;5094765;28;20031;-63
2023/10/12 10:44:41;;;;;;;12.32;3.92;;;24.60;49.80;;;;;;5084618;28;20073;-64
2023/10/12 10:47:09;;;;;;;;;;;24.70;49.50;;;;;;5021298;28;20402;-64
2023/10/12 10:49:35;;;;;;;13.90;3.70;;;24.80;50.40;;;;;;5093130;28;19912;-63
2023/10/12 10:54:38;;;;;;;10.00;3.78;;;24.90;49.20;;;;;;5094062;28;20081;-63
2023/10/12 10:57:24;;;;;;;12.38;3.65;;;25.00;49.00;;;;;;5086805;28;20024;-63
2023/10/12 10:59:51;;;;;;;11.10;3.55;;;25.00;48.50;;;;;;5086677;28;20042;-64
2023/10/12 11:02:18;;;;;;;11.30;3.78;;;25.10;48.60;;;;;;5090040;28;20081;-64
2023/10/12 11:04:46;;;;;;;15.27;3.45;;;25.10;48.50;;;;;;5091655;28;20028;-63
2023/10/12 11:07:17;;;;;;;12.90;3.75;;;25.20;48.10;;;;;;5103615;27;20032;-63
2023/10/12 11:12:26;;;;;;;8.43;3.53;;;25.30;47.50;;;;;;5086957;28;20054;-63
2023/10/12 11:15:11;;;;;;;11.65;3.92;;;25.40;47.70;;;;;;5088681;28;20020;-63
2023/10/12 11:17:49;;;;;;;12.48;4.25;;;25.40;47.80;;;;;;5089933;28;20035;-63
2023/10/12 11:20:26;;;;;;;10.80;3.53;;;25.50;47.40;;;;;;5086652;28;20066;-64
2023/10/12 11:22:55;;;;;;;14.73;4.15;;;25.50;47.90;;;;;;5091777;28;20036;-62
2023/10/12 11:25:21;;;;;;;8.98;3.45;;;25.50;47.20;;;;;;5100770;28;20036;-62
2023/10/12 11:27:47;;;;;;;11.38;4.40;;;25.60;47.40;;;;;;5093659;28;20493;-63
2023/10/12 11:30:27;;;;;;;12.60;3.70;;;25.60;47.10;;;;;;5087155;28;20027;-61
2023/10/12 11:32:54;;;;;;;10.75;3.72;;;25.60;47.30;;;;;;5069360;28;20678;-63
2023/10/12 11:35:40;;;;;;;11.73;4.45;;;25.60;47.20;;;;;;5085799;28;20027;-63
2023/10/12 11:38:17;;;;;;;9.07;3.60;;;25.60;46.60;;;;;;5084545;28;20115;-63
2023/10/12 11:40:44;;;;;;;11.05;3.58;;;25.60;46.10;;;;;;5090117;28;20362;-63
2023/10/12 11:43:11;;;;;;;5.47;3.30;;;25.70;46.20;;;;;;5092585;28;20024;-64
2023/10/12 11:46:05;;;;;;;8.40;3.72;;;25.70;46.40;;;;;;5007845;28;20685;-63
2023/10/12 11:48:31;;;;;;;;;;;25.70;45.80;;;;;;5085588;28;20039;-63
2023/10/12 11:50:57;;;;;;;5.93;2.88;;;25.80;46.60;;;;;;5088625;28;20345;-63
2023/10/12 11:53:25;;;;;;;7.85;3.50;;;25.80;46.70;;;;;;5088416;28;20016;-63
2023/10/12 11:56:17;;;;;;;11.02;3.50;;;25.80;46.70;;;;;;5086930;28;20028;-63
2023/10/12 11:58:51;;;;;;;5.63;3.17;;;25.80;46.30;;;;;;5075143;28;20020;-65
2023/10/12 12:01:18;;;;;;;11.43;3.70;;;25.90;46.30;;;;;;5086961;28;20016;-63
2023/10/12 12:03:45;;;;;;;11.68;3.38;;;25.90;46.40;;;;;;5086240;28;20027;-62
2023/10/12 12:06:21;;;;;;;9.73;3.83;;;26.00;46.40;;;;;;5086001;28;20024;-64
2023/10/12 12:08:48;;;;;;;9.38;3.55;;;26.00;46.70;;;;;;5086873;28;20093;-63
2023/10/12 12:11:19;;;;;;;6.75;3.45;;;26.20;46.20;;;;;;5089098;28;20027;-64
2023/10/12 12:13:48;;;;;;;7.60;2.92;;;26.30;45.40;;;;;;5089582;28;20037;-64
2023/10/12 12:16:23;;;;;;;9.98;3.45;;;26.40;44.40;;;;;;5088392;28;20096;-63
2023/10/12 12:18:51;;;;;;;8.93;3.13;;;26.50;42.90;;;;;;5088751;28;20044;-63
2023/10/12 12:21:28;;;;;;;8.75;3.05;;;26.60;42.50;;;;;;5087954;28;20388;-63
2023/10/12 12:24:21;;;;;;;10.23;2.67;;;26.60;41.90;;;;;;5092344;28;20063;-62
2023/10/12 12:26:49;;;;;;;10.07;3.17;;;26.60;41.40;;;;;;5076207;28;20486;-62
2023/10/12 12:29:16;;;;;;;10.15;2.75;;;26.60;40.30;;;;;;5072377;28;20031;-63
2023/10/12 12:31:42;;;;;;;6.28;2.97;;;26.60;39.80;;;;;;5086742;28;20016;-65
2023/10/12 12:34:08;;;;;;;9.52;3.00;;;26.50;40.30;;;;;;5089435;28;20020;-62
2023/10/12 12:36:35;;;;;;;8.45;3.08;;;26.50;39.60;;;;;;5085229;28;20024;-63
2023/10/12 12:39:01;;;;;;;6.95;3.28;;;26.40;39.80;;;;;;5095219;28;20410;-64
2023/10/12 12:41:29;;;;;;;8.98;3.53;;;26.40;40.20;;;;;;5090594;28;20475;-64
2023/10/12 12:43:58;;;;;;;6.70;2.88;;;26.40;39.90;;;;;;5093574;28;20023;-64
2023/10/12 12:46:25;;;;;;;6.53;2.85;;;26.40;40.20;;;;;;5085217;28;20085;-64
2023/10/12 12:48:51;;;;;;;6.85;3.03;;;26.40;40.40;;;;;;5085796;28;20485;-62
2023/10/12 12:51:20;;;;;;;5.68;2.92;;;26.30;39.90;;;;;;5082903;28;20035;-62
2023/10/12 12:53:47;;;;;;;8.70;3.08;;;26.30;40.20;;;;;;5093021;28;20518;-64
2023/10/12 12:56:17;;;;;;;13.80;2.95;;;26.30;40.20;;;;;;5085223;28;20022;-63
2023/10/12 12:58:46;;;;;;;5.72;3.10;;;26.30;39.90;;;;;;5089953;28;20024;-63
2023/10/12 13:01:17;;;;;;;10.80;3.03;;;26.20;40.50;;;;;;5087736;28;20016;-64
2023/10/12 13:03:45;;;;;;;5.45;2.92;;;26.20;40.60;;;;;;5092912;28;20123;-63
2023/10/12 13:06:12;;;;;;;10.55;3.10;;;26.20;40.50;;;;;;5093023;28;20031;-63
2023/10/12 13:08:39;;;;;;;17.85;3.75;;;26.20;40.60;;;;;;5087619;28;20028;-63
2023/10/12 13:11:04;;;;;;;7.70;3.50;;;26.20;40.10;;;;;;5088523;28;20340;-63
2023/10/12 13:13:33;;;;;;;10.05;3.47;;;26.10;40.10;;;;;;5067935;28;20043;-62
2023/10/12 13:16:05;;;;;;;7.57;3.05;;;26.10;40.30;;;;;;5089857;28;20020;-64
2023/10/12 13:18:34;;;;;;;7.45;3.30;;;26.00;40.20;;;;;;5086517;28;20028;-63
2023/10/12 13:21:06;;;;;;;9.55;3.40;;;25.90;39.70;;;;;;5084180;28;20391;-63
2023/10/12 13:23:33;;;;;;;5.57;3.22;;;25.90;39.70;;;;;;5085180;28;20504;-63
2023/10/12 13:26:12;;;;;;;11.77;3.55;;;25.80;39.70;;;;;;5088681;28;20070;-62
2023/10/12 13:28:41;;;;;;;7.25;2.95;;;25.80;39.60;;;;;;5087315;28;20509;-62
2023/10/12 13:31:10;;;;;;;5.95;2.90;;;25.70;39.80;;;;;;5088156;28;20093;-63
2023/10/12 13:33:37;;;;;;;8.88;3.20;;;25.70;40.00;;;;;;5088635;28;20020;-62
2023/10/12 13:36:04;;;;;;;11.63;3.53;;;25.60;39.90;;;;;;5085573;28;20093;-63
2023/10/12 13:38:34;;;;;;;5.50;3.05;;;25.60;40.20;;;;;;5088012;28;20090;-63
2023/10/12 13:41:01;;;;;;;12.32;3.10;;;25.60;40.50;;;;;;5081324;28;20027;-65
2023/10/12 13:43:30;;;;;;;5.85;2.85;;;25.50;40.40;;;;;;5087000;28;20031;-62
2023/10/12 13:45:56;;;;;;;6.72;3.50;;;25.50;40.50;;;;;;4996701;28;20358;-62
2023/10/12 13:48:27;;;;;;;7.35;2.78;;;25.50;40.30;;;;;;5086461;28;20039;-63
2023/10/12 13:51:01;;;;;;;6.20;2.97;;;25.50;40.00;;;;;;5085533;28;20060;-62
2023/10/12 13:53:27;;;;;;;6.57;3.30;;;25.50;39.90;;;;;;5090154;28;20480;-63
2023/10/12 13:55:56;;;;;;;11.15;3.67;;;25.50;40.00;;;;;;5089389;28;20025;-64
2023/10/12 13:58:25;;;;;;;6.82;3.58;;;25.50;39.70;;;;;;5066895;28;20160;-64
2023/10/12 14:00:54;;;;;;;9.75;3.40;;;25.40;40.00;;;;;;5069529;28;20036;-63
2023/10/12 14:03:28;;;;;;;7.00;3.17;;;25.40;39.90;;;;;;5086947;28;20451;-63
2023/10/12 14:05:59;;;;;;;12.00;3.35;;;25.40;39.80;;;;;;5085575;28;20708;-62
2023/10/12 14:08:25;;;;;;;8.68;3.00;;;25.30;39.80;;;;;;5087777;28;20036;-63
2023/10/12 14:10:54;;;;;;;7.60;3.25;;;25.40;40.30;;;;;;5089815;28;20176;-63
2023/10/12 14:13:20;;;;;;;6.63;2.95;;;25.30;40.10;;;;;;5075981;28;20082;-64
2023/10/12 14:15:47;;;;;;;7.47;3.00;;;25.40;40.50;;;;;;5093293;28;20425;-63
2023/10/12 14:18:16;;;;;;;11.88;3.63;;;25.40;40.20;;;;;;5093504;28;20050;-63
2023/10/12 14:20:45;;;;;;;5.03;3.15;;;25.40;40.20;;;;;;5087984;28;20359;-63
2023/10/12 14:23:13;;;;;;;6.32;2.90;;;25.40;40.40;;;;;;5090558;28;20060;-63
2023/10/12 14:25:43;;;;;;;4.57;2.95;;;25.30;40.30;;;;;;5093114;28;20126;-64
2023/10/12 14:28:10;;;;;;;6.03;2.67;;;25.40;40.30;;;;;;5087300;28;20040;-64
2023/10/12 14:30:38;;;;;;;7.95;2.85;;;25.40;40.10;;;;;;5090272;28;20110;-63
2023/10/12 14:33:08;;;;;;;9.15;3.00;;;25.40;40.20;;;;;;5093725;28;20020;-63
2023/10/12 14:35:37;;;;;;;8.55;3.15;;;25.40;40.30;;;;;;5094161;28;20047;-63
2023/10/12 14:38:07;;;;;;;7.88;2.90;;;25.40;40.20;;;;;;5088155;28;20028;-63
2023/10/12 14:40:34;;;;;;;7.18;3.00;;;25.40;40.30;;;;;;5094756;28;20795;-63
2023/10/12 14:43:10;;;;;;;5.50;2.95;;;25.40;40.00;;;;;;5089415;28;20039;-64
2023/10/12 14:45:37;;;;;;;6.57;2.83;;;25.40;40.10;;;;;;5006633;28;20708;-63
2023/10/12 14:48:11;;;;;;;8.88;2.60;;;25.40;40.20;;;;;;5089188;28;20040;-64
2023/10/12 14:50:47;;;;;;;;;;;25.50;40.30;;;;;;5090192;28;20028;-63
2023/10/12 14:53:20;;;;;;;4.28;2.35;;;25.50;40.90;;;;;;5086322;28;19982;-63
2023/10/12 14:55:51;;;;;;;5.80;2.63;;;25.50;40.50;;;;;;5094629;28;20027;-63
2023/10/12 14:58:20;;;;;;;7.20;2.47;;;25.50;40.50;;;;;;5093939;28;20028;-61
2023/10/12 15:00:47;;;;;;;7.53;2.97;;;25.50;40.60;;;;;;5086626;28;20032;-63
2023/10/12 15:03:21;;;;;;;5.97;2.83;;;25.40;40.50;;;;;;5089947;28;20494;-62
2023/10/12 15:05:52;;;;;;;7.50;2.55;;;25.40;40.40;;;;;;5090274;28;20039;-62
2023/10/12 15:08:19;;;;;;;13.20;3.13;;;25.40;40.40;;;;;;5092291;28;20039;-63
2023/10/12 15:10:45;;;;;;;8.25;3.17;;;25.40;40.50;;;;;;5086742;28;20096;-63
2023/10/12 15:13:12;;;;;;;5.90;3.05;;;25.40;40.60;;;;;;5092056;28;20509;-62
2023/10/12 15:15:45;;;;;;;10.27;3.08;;;25.30;40.60;;;;;;5089870;28;20151;-63
2023/10/12 15:18:14;;;;;;;12.52;3.50;;;25.30;40.60;;;;;;5108201;27;20021;-63
2023/10/12 15:20:43;;;;;;;6.88;3.05;;;25.30;40.90;;;;;;5088389;28;20567;-63
2023/10/12 15:23:09;;;;;;;6.82;3.17;;;25.20;41.20;;;;;;5082234;28;20121;-62
2023/10/12 15:25:35;;;;;;;10.38;3.10;;;25.20;41.50;;;;;;5090572;28;20090;-63
2023/10/12 15:28:02;;;;;;;13.45;3.22;;;25.20;41.90;;;;;;5089706;28;20072;-63
2023/10/12 15:30:28;;;;;;;14.25;4.00;;;25.10;42.20;;;;;;5088384;28;20454;-63
2023/10/12 15:32:59;;;;;;;8.35;4.57;;;25.10;42.50;;;;;;5088272;28;20052;-64
2023/10/12 15:35:26;;;;;;;8.80;4.70;;;25.00;42.80;;;;;;5075167;28;20054;-63
2023/10/12 15:37:55;;;;;;;13.80;4.63;;;25.00;43.00;;;;;;5089683;28;20029;-63
2023/10/12 15:40:21;;;;;;;10.40;3.83;;;25.00;43.30;;;;;;5088707;28;20081;-63
2023/10/12 15:42:47;;;;;;;20.60;4.10;;;24.90;43.50;;;;;;5089205;28;20539;-61
2023/10/12 15:45:15;;;;;;;8.07;4.25;;;24.90;43.70;;;;;;5087909;28;20505;-63
2023/10/12 15:47:40;;;;;;;11.15;4.28;;;24.80;44.50;;;;;;5090197;28;20046;-63
2023/10/12 15:50:07;;;;;;;10.25;4.18;;;24.80;44.20;;;;;;5093405;28;20012;-63
2023/10/12 15:52:34;;;;;;;8.43;3.85;;;24.70;44.30;;;;;;5086004;28;20119;-62